Friday, February 12, 2016
16:13 UTC
  |  Log In   |  Register Free
Airport Search:

Ellington Airport
(KEFD)

FAA data valid effective Feb 4 2016 - Mar 31 2016 (unless otherwise noted).

 
 
 
 
 
 
 
 
 
 
 
 
 
 
Current Aviation Weather for KEFD

Weather Summary


The most recent METAR observation for EFD was updated at: 12:50 UTC
METAR for KEFD is not available. Closest METAR is for KHOU
KEFD  (most recent observation was updatred at 12:15 UTC)
121550Z 23011KT 10SM FEW015 24/15 A3028

KHOU  (6.7 nm SE)   (most recent observation was updated at 12:15 UTC)
121553Z 24009KT 10SM FEW015 19/15 A3026 RMK AO2 SLP251 T01940150

KLVJ  (6.8 nm NE)   (most recent observation was updated at 12:15 UTC)
121553Z AUTO 25009KT 10SM CLR 20/16 A3028 RMK AO2 SLP251 T02000156

TAF for KEFD is not available.
KEFD
AMD 121435Z 1214/1318 24006KT 0400 FG SCT010 QNH3015INS TEMPO 1214/1216 1600 BR BECMG 1215/1216 23009KT 9999 NSW FEW030 QNH3024INS BECMG 1302/1303 36006KT 9999 SCT020 QNH3026INS TX22/1221Z TN11/1311Z AMD 121435

KHOU  (6.7 nm SE)   (most recent observation was updatred at 12:15 UTC)
AMD 121501Z 1215/1312 23008KT P6SM SKC FM122200 18005KT P6SM FEW250 FM130900 06004KT P6SM BKN025


KIAH  (24.6 nm SE)   (most recent observation was updatred at 12:14 UTC)
AMD 121459Z 1215/1318 26005KT P6SM BCFG SCT004 FM121600 24008KT P6SM SKC FM122300 VRB04KT P6SM FEW250 FM130900 05004KT P6SM BKN025 FM131600 08012KT P6SM BKN030
GlobalAir.com is loading additional information.
 Current Weather at EFD
70.0 F° (21.0 C°)

Southwest winds at 4.6 mph
Pressure:
30.26 in
Humidity:
94%
Wind:
Southwest at 4.6 mph
Dew Point:
68.0 F° (20.0 C°)
Visibility:
7.00 mi
EFD NOAA Radar




Find All Airport Services Find A Hotel Find A Rental Car Find A Golf Course Find A Restaurant $100 Hamburger



Airport Weather Forecast for KEFD

Translated METAR for KEFD (1550 UTC)
METAR:
KEFD 121550Z 23011KT 10SM FEW015 24/15 A3028
Conditions at:
KEFD (Ellington, TX) observed 1550 UTC 12 February 2016
Temperature:
24°C (75.2°F)
Dewpoint:
15°C (59°F) [RH = 57.2]
Pressure:
30.28 inches Hg (1025.4 mb)
Winds:
from the SW (230 degrees) at 12.7 mph (11 knots: 5.7 m/s)
Visibility:
10 mile(s)
Ceiling:
at least 12,000 feet AGL
Clouds:
Few Clouds at 1,500 feet AGL
Remarks:

Translated TAF for KEFD (Ellington, TX) (1435 UTC)
TAF text:
KEFD 121435Z 1214/1318 24006KT 0400 FG SCT010 QNH3015INS
Forecast period:
Friday Feb 12 2016 14:00 UTC - Saturday Feb 13 2016 18:00 UTC
Forecast type:
FROM: standard forecast or significant change
Winds:
from the WSW (240 degrees) at 6.9 mph (6 knots: 3.1 m/s)
Visibility:
Ceiling:
at least 12,000 feet AGL
Clouds:
Scattered Clouds at 1,000 feet AGL
Weather:
Moderate Fog
TAF text:
1214/1216 1600 BR BECMG 1215/1216 23009KT 9999 NSW FEW030 QNH3024INS BECMG 1302/1303 36006KT 9999 SCT020 QNH3026INS TX22/1221Z TN11/1311Z 121435
Forecast period:
Saturday Feb 13 2016 14:00 UTC - Saturday Feb 13 2016 16:00 UTC
Forecast type:
FROM: standard forecast or significant change
Winds:
from the N (360 degrees) at 6.9 mph (6 knots: 3.1 m/s)
Visibility:
Ceiling:
at least 12,000 feet AGL
at least 12,000 feet AGL
Clouds:
Few Clouds at 3,000 feet AGL
Scattered Clouds at 2,000 feet AGL
Weather:
Moderate Mist
FBO's on the Field
FBO Company Facility Photos Services Transportation Aviation Fuel Prices: Prices include tax
Catering Weather Repair Courtesy Rental Type 100LL JetA JetA+ MOGAS 8087
 
Landmark Aviation - EFD

This FBO has not yet been rated
FS:Independent
Last Updated: Feb-12
Login to update fuel prices
SS:
Contact Landmark Aviation - EFDMore FBO Information
 
Add another FBO Facility Photos Catering Weather Repair Courtesy Rental Type 100LL JetA JetA+ MOGAS 8087
Services Transportation Aviation Fuel Prices: Prices include tax


model-print
model-print
model-print
model-print